首页
METAR-TAF:

METAR-TAF

机场 :

Southern Wisconsin Regional Airport

Janesville, 威斯康辛州, 美国

纬度: 42-37N, 经度: 089-02W, 海拔: 246米

当前天气观测

该预报发布于21分钟前的04:55 UTC
风速9节,风向
温度 25°C
湿度 79%
气压 1009 hPa
能見度: 16.1公里
散云层高于10000英尺

METAR: KJVL 250455Z AUTO 17009KT 10SM SCT100 25/21 A2979 RMK AO2

时间: 00:16 (05:16 UTC)

预报

该预报发布于4小时和15分钟前的01:01 UTC
预报有效从25日的 01点(UTC)到 25日的 24点(UTC)
风速8节,风向南转西南
能見度: 10公里
散云层高于20000英尺
短暂存在
从 25日的 01点(UTC)到 25日的 02点(UTC)
能見度: 6.4公里
阴天层高于2500英尺, 积雨云.
雷暴, 雨
从 25日的 0700点(UTC)
风速12节,风向,有时为22节阵风
能見度: 10公里
多云层高于10000英尺
几率 30%
从 25日的 07点(UTC)到 25日的 11点(UTC)
能見度: 6.4公里
阴天层高于2500英尺, 积雨云.
雷暴, 雨
从 25日的 1100点(UTC)
风速12节,风向南转西南,有时为22节阵风
能見度: 10公里
多云层高于10000英尺
从 25日的 1400点(UTC)
风速11节,风向西转西南
能見度: 10公里
散云层高于15000英尺
从 25日的 2100点(UTC)
风速9节,风向西转西北
能見度: 10公里
散云层高于25000英尺

TAF: KJVL 250101Z 2501/2524 20008KT P6SM SCT200 TEMPO 2501/2502 4SM TSRA OVC025CB FM250700 19012G22KT P6SM BKN100 PROB30 2507/2511 4SM TSRA OVC025CB FM251100 21012G22KT P6SM BKN100 WS020/25045KT FM251400 25011KT P6SM SCT150 FM252100 29009KT P6SM SCT250

超过4000个机场的气象观测和天气预报(METAR&TAF报告)。

可查询的气象台以黄色和红色小点在地图上表示。

将鼠标移到小点上方,可查看气象台名称。

然后点击查看天气观测和预报。

如需切换地图:点击带黑十字的绿色按钮放大地图;点击带横线的绿色按钮缩小地图;或者点击绿色箭头查看邻近地区的地图。


METAR-TAF: